Google Maps JavaScript API Example
Pilot Flight Report # 95506 Submitted by : AST195 on 2021-10-17
Date: 2021-10-17Aircraft: Airbus A320-200
Flight No.: AST17091Distance (Nm): 291.45
Departure: KBOI - Boise Air Terminal/GowenDestination: KRNO - Reno/Tahoe Intl
 TimeFuelWeightSpeeds  
Out (Taxi)2245 Flight RulesIFR
Off (Takeoff)2245 Flight Level
On (Landing)0015 VSTD
In (Ramp)0015 ZFW
Flight1.50  -  1:309196  Pax0
Block1.50  -  1:309196  Cargo0
Departure WeatherKBOI 170053Z 17013KT 10SM CLR 19/M04 A3007 RMK AO2 SLP177 T01941044 $
Destination WeatherKRNO 170055Z 07006KT 10SM CLR 21/M07 A3003 RMK AO2 SLP144 T02111067
Flight CommentsN/A